sensor_id;sensor_type;location;lat;lon;timestamp;temperature;humidity
7427;DHT22;3755;59.316;18.092;2022-10-31T00:01:38;5.00;99.90
7427;DHT22;3755;59.316;18.092;2022-10-31T00:04:07;5.00;99.90
7427;DHT22;3755;59.316;18.092;2022-10-31T00:06:36;5.00;99.90
7427;DHT22;3755;59.316;18.092;2022-10-31T00:09:04;5.10;99.90
7427;DHT22;3755;59.316;18.092;2022-10-31T00:11:32;5.00;99.90
7427;DHT22;3755;59.316;18.092;2022-10-31T00:14:00;5.00;99.90
7427;DHT22;3755;59.316;18.092;2022-10-31T00:16:28;5.00;99.90
7427;DHT22;3755;59.316;18.092;2022-10-31T00:18:57;5.00;99.90
7427;DHT22;3755;59.316;18.092;2022-10-31T00:21:25;5.10;99.90
7427;DHT22;3755;59.316;18.092;2022-10-31T00:23:55;5.00;99.90
7427;DHT22;3755;59.316;18.092;2022-10-31T00:26:26;5.00;99.90
7427;DHT22;3755;59.316;18.092;2022-10-31T00:28:57;5.00;99.90
7427;DHT22;3755;59.316;18.092;2022-10-31T00:31:24;5.10;99.90
7427;DHT22;3755;59.316;18.092;2022-10-31T00:33:52;5.10;99.90
7427;DHT22;3755;59.316;18.092;2022-10-31T00:36:20;5.10;99.90
7427;DHT22;3755;59.316;18.092;2022-10-31T00:38:47;5.10;99.90
7427;DHT22;3755;59.316;18.092;2022-10-31T00:41:18;5.10;99.90
7427;DHT22;3755;59.316;18.092;2022-10-31T00:43:45;5.00;99.90
7427;DHT22;3755;59.316;18.092;2022-10-31T00:46:13;5.00;99.90
7427;DHT22;3755;59.316;18.092;2022-10-31T00:48:40;5.10;99.90
7427;DHT22;3755;59.316;18.092;2022-10-31T00:51:08;5.10;99.90
7427;DHT22;3755;59.316;18.092;2022-10-31T00:53:36;5.10;99.90
7427;DHT22;3755;59.316;18.092;2022-10-31T00:56:06;5.10;99.90
7427;DHT22;3755;59.316;18.092;2022-10-31T00:58:39;5.20;99.90
7427;DHT22;3755;59.316;18.092;2022-10-31T01:01:08;5.20;99.90
7427;DHT22;3755;59.316;18.092;2022-10-31T01:03:36;5.20;99.90
7427;DHT22;3755;59.316;18.092;2022-10-31T01:06:06;5.20;99.90
7427;DHT22;3755;59.316;18.092;2022-10-31T01:08:35;5.30;99.90
7427;DHT22;3755;59.316;18.092;2022-10-31T01:11:12;5.30;99.90
7427;DHT22;3755;59.316;18.092;2022-10-31T01:13:42;5.30;99.90
7427;DHT22;3755;59.316;18.092;2022-10-31T01:16:12;5.30;99.90
7427;DHT22;3755;59.316;18.092;2022-10-31T01:18:40;5.40;99.90
7427;DHT22;3755;59.316;18.092;2022-10-31T01:21:10;5.40;99.90
7427;DHT22;3755;59.316;18.092;2022-10-31T01:23:39;5.40;99.90
7427;DHT22;3755;59.316;18.092;2022-10-31T01:26:09;5.40;99.90
7427;DHT22;3755;59.316;18.092;2022-10-31T01:28:38;5.30;99.90
7427;DHT22;3755;59.316;18.092;2022-10-31T01:31:08;5.30;99.90
7427;DHT22;3755;59.316;18.092;2022-10-31T01:33:36;5.30;99.90
7427;DHT22;3755;59.316;18.092;2022-10-31T01:36:15;5.30;99.90
7427;DHT22;3755;59.316;18.092;2022-10-31T01:38:58;5.30;99.90
7427;DHT22;3755;59.316;18.092;2022-10-31T01:41:30;5.30;99.90
7427;DHT22;3755;59.316;18.092;2022-10-31T01:43:59;5.20;99.90
7427;DHT22;3755;59.316;18.092;2022-10-31T01:46:32;5.20;99.90
7427;DHT22;3755;59.316;18.092;2022-10-31T01:49:04;5.20;99.90
7427;DHT22;3755;59.316;18.092;2022-10-31T01:51:49;5.20;99.90
7427;DHT22;3755;59.316;18.092;2022-10-31T01:54:21;5.10;99.90
7427;DHT22;3755;59.316;18.092;2022-10-31T01:56:53;5.20;99.90
7427;DHT22;3755;59.316;18.092;2022-10-31T01:59:22;5.30;99.90
7427;DHT22;3755;59.316;18.092;2022-10-31T02:01:56;5.30;99.90
7427;DHT22;3755;59.316;18.092;2022-10-31T02:04:26;5.30;99.90
7427;DHT22;3755;59.316;18.092;2022-10-31T02:06:57;5.30;99.90
7427;DHT22;3755;59.316;18.092;2022-10-31T02:09:26;5.40;99.90
7427;DHT22;3755;59.316;18.092;2022-10-31T02:11:56;5.40;99.90
7427;DHT22;3755;59.316;18.092;2022-10-31T02:14:26;5.60;99.90
7427;DHT22;3755;59.316;18.092;2022-10-31T02:16:56;5.70;99.90
7427;DHT22;3755;59.316;18.092;2022-10-31T02:19:30;5.60;99.90
7427;DHT22;3755;59.316;18.092;2022-10-31T02:22:07;5.90;99.90
7427;DHT22;3755;59.316;18.092;2022-10-31T02:24:51;5.90;99.90
7427;DHT22;3755;59.316;18.092;2022-10-31T02:27:54;6.00;99.90
7427;DHT22;3755;59.316;18.092;2022-10-31T02:30:40;6.00;99.90
7427;DHT22;3755;59.316;18.092;2022-10-31T02:33:18;6.00;99.90
7427;DHT22;3755;59.316;18.092;2022-10-31T02:35:57;6.00;99.90
7427;DHT22;3755;59.316;18.092;2022-10-31T02:38:39;6.00;99.90
7427;DHT22;3755;59.316;18.092;2022-10-31T02:41:17;6.00;99.90
7427;DHT22;3755;59.316;18.092;2022-10-31T02:43:56;5.90;99.90
7427;DHT22;3755;59.316;18.092;2022-10-31T02:46:30;5.90;99.90
7427;DHT22;3755;59.316;18.092;2022-10-31T02:49:05;6.00;99.90
7427;DHT22;3755;59.316;18.092;2022-10-31T02:51:33;6.10;99.90
7427;DHT22;3755;59.316;18.092;2022-10-31T02:54:00;6.10;99.90
7427;DHT22;3755;59.316;18.092;2022-10-31T02:56:30;6.10;99.90
7427;DHT22;3755;59.316;18.092;2022-10-31T02:59:00;6.10;99.90
7427;DHT22;3755;59.316;18.092;2022-10-31T03:04:43;6.10;99.90
7427;DHT22;3755;59.316;18.092;2022-10-31T03:07:17;6.10;99.90
7427;DHT22;3755;59.316;18.092;2022-10-31T03:09:54;6.10;99.90
7427;DHT22;3755;59.316;18.092;2022-10-31T03:12:27;6.10;99.90
7427;DHT22;3755;59.316;18.092;2022-10-31T03:15:02;6.10;99.90
7427;DHT22;3755;59.316;18.092;2022-10-31T03:17:36;6.00;99.90
7427;DHT22;3755;59.316;18.092;2022-10-31T03:20:08;6.00;99.90
7427;DHT22;3755;59.316;18.092;2022-10-31T03:22:39;6.20;99.90
7427;DHT22;3755;59.316;18.092;2022-10-31T03:25:13;6.10;99.90
7427;DHT22;3755;59.316;18.092;2022-10-31T03:27:42;6.10;99.90
7427;DHT22;3755;59.316;18.092;2022-10-31T03:30:10;6.10;99.90
7427;DHT22;3755;59.316;18.092;2022-10-31T03:32:43;6.10;99.90
7427;DHT22;3755;59.316;18.092;2022-10-31T03:35:17;6.10;99.90
7427;DHT22;3755;59.316;18.092;2022-10-31T03:37:46;6.20;99.90
7427;DHT22;3755;59.316;18.092;2022-10-31T03:40:16;6.20;99.90
7427;DHT22;3755;59.316;18.092;2022-10-31T03:42:51;6.30;99.90
7427;DHT22;3755;59.316;18.092;2022-10-31T03:45:23;6.30;99.90
7427;DHT22;3755;59.316;18.092;2022-10-31T03:47:53;6.40;99.90
7427;DHT22;3755;59.316;18.092;2022-10-31T03:50:24;6.40;99.90
7427;DHT22;3755;59.316;18.092;2022-10-31T03:52:57;6.50;99.90
7427;DHT22;3755;59.316;18.092;2022-10-31T03:55:30;6.60;99.90
7427;DHT22;3755;59.316;18.092;2022-10-31T03:58:01;6.70;99.90
7427;DHT22;3755;59.316;18.092;2022-10-31T04:00:30;6.80;99.90
7427;DHT22;3755;59.316;18.092;2022-10-31T04:03:03;6.90;99.90
7427;DHT22;3755;59.316;18.092;2022-10-31T04:05:34;7.00;99.90
7427;DHT22;3755;59.316;18.092;2022-10-31T04:08:06;7.10;99.90
7427;DHT22;3755;59.316;18.092;2022-10-31T04:10:36;7.10;99.90
7427;DHT22;3755;59.316;18.092;2022-10-31T04:13:07;7.10;99.90
7427;DHT22;3755;59.316;18.092;2022-10-31T04:15:38;7.20;99.90
7427;DHT22;3755;59.316;18.092;2022-10-31T04:18:07;7.20;99.90
7427;DHT22;3755;59.316;18.092;2022-10-31T04:20:42;7.30;99.90
7427;DHT22;3755;59.316;18.092;2022-10-31T04:23:19;7.40;99.90
7427;DHT22;3755;59.316;18.092;2022-10-31T04:25:47;7.40;99.90
7427;DHT22;3755;59.316;18.092;2022-10-31T04:28:14;7.50;99.90
7427;DHT22;3755;59.316;18.092;2022-10-31T04:30:42;7.50;99.90
7427;DHT22;3755;59.316;18.092;2022-10-31T04:33:09;7.50;99.90
7427;DHT22;3755;59.316;18.092;2022-10-31T04:35:38;7.50;99.90
7427;DHT22;3755;59.316;18.092;2022-10-31T04:38:05;7.60;99.90
7427;DHT22;3755;59.316;18.092;2022-10-31T04:40:32;7.50;99.90
7427;DHT22;3755;59.316;18.092;2022-10-31T04:43:03;7.50;99.90
7427;DHT22;3755;59.316;18.092;2022-10-31T04:45:30;7.50;99.90
7427;DHT22;3755;59.316;18.092;2022-10-31T04:47:58;7.60;99.90
7427;DHT22;3755;59.316;18.092;2022-10-31T04:53:44;7.60;99.90
7427;DHT22;3755;59.316;18.092;2022-10-31T04:56:12;7.70;99.90
7427;DHT22;3755;59.316;18.092;2022-10-31T04:58:39;7.70;99.90
7427;DHT22;3755;59.316;18.092;2022-10-31T05:01:07;7.60;99.90
7427;DHT22;3755;59.316;18.092;2022-10-31T05:03:35;7.70;99.90
7427;DHT22;3755;59.316;18.092;2022-10-31T05:06:05;7.70;99.90
7427;DHT22;3755;59.316;18.092;2022-10-31T05:08:34;7.90;99.90
7427;DHT22;3755;59.316;18.092;2022-10-31T05:11:09;7.80;99.90
7427;DHT22;3755;59.316;18.092;2022-10-31T05:13:38;7.80;99.90
7427;DHT22;3755;59.316;18.092;2022-10-31T05:16:07;7.80;99.90
7427;DHT22;3755;59.316;18.092;2022-10-31T05:18:36;7.80;99.90
7427;DHT22;3755;59.316;18.092;2022-10-31T05:21:04;7.90;99.90
7427;DHT22;3755;59.316;18.092;2022-10-31T05:23:31;7.90;99.90
7427;DHT22;3755;59.316;18.092;2022-10-31T05:25:59;7.90;99.90
7427;DHT22;3755;59.316;18.092;2022-10-31T05:28:28;7.90;99.90
7427;DHT22;3755;59.316;18.092;2022-10-31T05:30:57;7.80;99.90
7427;DHT22;3755;59.316;18.092;2022-10-31T05:33:27;7.80;99.90
7427;DHT22;3755;59.316;18.092;2022-10-31T05:35:56;7.90;99.90
7427;DHT22;3755;59.316;18.092;2022-10-31T05:38:23;7.80;99.90
7427;DHT22;3755;59.316;18.092;2022-10-31T05:40:54;7.80;99.90
7427;DHT22;3755;59.316;18.092;2022-10-31T05:43:32;7.80;99.90
7427;DHT22;3755;59.316;18.092;2022-10-31T05:46:13;7.90;99.90
7427;DHT22;3755;59.316;18.092;2022-10-31T05:48:51;7.90;99.90
7427;DHT22;3755;59.316;18.092;2022-10-31T05:51:18;7.90;99.90
7427;DHT22;3755;59.316;18.092;2022-10-31T05:53:47;7.90;99.90
7427;DHT22;3755;59.316;18.092;2022-10-31T05:56:27;7.90;99.90
7427;DHT22;3755;59.316;18.092;2022-10-31T05:58:58;7.90;99.90
7427;DHT22;3755;59.316;18.092;2022-10-31T06:01:29;7.90;99.90
7427;DHT22;3755;59.316;18.092;2022-10-31T06:03:56;8.00;99.90
7427;DHT22;3755;59.316;18.092;2022-10-31T06:06:26;8.00;99.90
7427;DHT22;3755;59.316;18.092;2022-10-31T06:12:04;8.00;99.90
7427;DHT22;3755;59.316;18.092;2022-10-31T06:14:48;8.10;99.90
7427;DHT22;3755;59.316;18.092;2022-10-31T06:17:15;8.10;99.90
7427;DHT22;3755;59.316;18.092;2022-10-31T06:19:46;8.10;99.90
7427;DHT22;3755;59.316;18.092;2022-10-31T06:22:20;8.10;99.90
7427;DHT22;3755;59.316;18.092;2022-10-31T06:24:48;8.20;99.90
7427;DHT22;3755;59.316;18.092;2022-10-31T06:27:31;8.20;99.90
7427;DHT22;3755;59.316;18.092;2022-10-31T06:30:20;8.20;99.90
7427;DHT22;3755;59.316;18.092;2022-10-31T06:33:34;8.30;99.90
7427;DHT22;3755;59.316;18.092;2022-10-31T06:36:02;8.30;99.90
7427;DHT22;3755;59.316;18.092;2022-10-31T06:38:34;8.30;99.90
7427;DHT22;3755;59.316;18.092;2022-10-31T06:41:03;8.30;99.90
7427;DHT22;3755;59.316;18.092;2022-10-31T06:43:47;8.50;99.90
7427;DHT22;3755;59.316;18.092;2022-10-31T06:46:20;8.40;99.90
7427;DHT22;3755;59.316;18.092;2022-10-31T06:48:48;8.50;99.90
7427;DHT22;3755;59.316;18.092;2022-10-31T06:51:38;8.60;99.90
7427;DHT22;3755;59.316;18.092;2022-10-31T06:54:22;8.70;99.90
7427;DHT22;3755;59.316;18.092;2022-10-31T06:57:04;8.60;99.90
7427;DHT22;3755;59.316;18.092;2022-10-31T06:59:46;8.70;99.90
7427;DHT22;3755;59.316;18.092;2022-10-31T07:02:29;8.70;99.90
7427;DHT22;3755;59.316;18.092;2022-10-31T07:05:10;8.80;99.90
7427;DHT22;3755;59.316;18.092;2022-10-31T07:08:04;8.80;99.90
7427;DHT22;3755;59.316;18.092;2022-10-31T07:10:54;8.90;99.90
7427;DHT22;3755;59.316;18.092;2022-10-31T07:13:37;8.90;99.90
7427;DHT22;3755;59.316;18.092;2022-10-31T07:16:24;8.90;99.90
7427;DHT22;3755;59.316;18.092;2022-10-31T07:19:12;9.00;99.90
7427;DHT22;3755;59.316;18.092;2022-10-31T07:21:56;9.00;99.90
7427;DHT22;3755;59.316;18.092;2022-10-31T07:24:39;9.10;99.90
7427;DHT22;3755;59.316;18.092;2022-10-31T07:27:59;9.10;99.90
7427;DHT22;3755;59.316;18.092;2022-10-31T07:30:50;9.10;99.90
7427;DHT22;3755;59.316;18.092;2022-10-31T07:33:48;9.10;99.90
7427;DHT22;3755;59.316;18.092;2022-10-31T08:03:51;9.50;99.90
7427;DHT22;3755;59.316;18.092;2022-10-31T08:07:03;9.50;99.90
7427;DHT22;3755;59.316;18.092;2022-10-31T08:10:11;9.60;99.90
7427;DHT22;3755;59.316;18.092;2022-10-31T08:13:38;9.70;99.90
7427;DHT22;3755;59.316;18.092;2022-10-31T08:16:24;9.70;99.90
7427;DHT22;3755;59.316;18.092;2022-10-31T08:19:23;9.80;99.90
7427;DHT22;3755;59.316;18.092;2022-10-31T08:22:21;9.80;99.90
7427;DHT22;3755;59.316;18.092;2022-10-31T08:25:13;9.80;99.90
7427;DHT22;3755;59.316;18.092;2022-10-31T08:27:59;9.90;99.90
7427;DHT22;3755;59.316;18.092;2022-10-31T08:31:01;9.90;99.90
7427;DHT22;3755;59.316;18.092;2022-10-31T08:33:44;9.90;99.90
7427;DHT22;3755;59.316;18.092;2022-10-31T08:59:56;9.80;99.90
7427;DHT22;3755;59.316;18.092;2022-10-31T09:06:09;9.80;99.90
7427;DHT22;3755;59.316;18.092;2022-10-31T10:50:12;11.40;99.90
7427;DHT22;3755;59.316;18.092;2022-10-31T10:53:02;11.30;99.90
7427;DHT22;3755;59.316;18.092;2022-10-31T10:55:50;11.30;99.90
7427;DHT22;3755;59.316;18.092;2022-10-31T10:58:43;11.30;99.90
7427;DHT22;3755;59.316;18.092;2022-10-31T11:01:24;11.30;99.90
7427;DHT22;3755;59.316;18.092;2022-10-31T11:04:25;11.30;99.90
7427;DHT22;3755;59.316;18.092;2022-10-31T11:14:11;11.40;99.90
7427;DHT22;3755;59.316;18.092;2022-10-31T11:17:06;11.50;99.90
7427;DHT22;3755;59.316;18.092;2022-10-31T11:20:20;11.60;99.90
7427;DHT22;3755;59.316;18.092;2022-10-31T11:23:16;11.70;99.90
7427;DHT22;3755;59.316;18.092;2022-10-31T11:32:34;11.80;99.90
7427;DHT22;3755;59.316;18.092;2022-10-31T11:35:18;11.80;99.90
7427;DHT22;3755;59.316;18.092;2022-10-31T11:41:09;11.90;99.90
7427;DHT22;3755;59.316;18.092;2022-10-31T11:43:57;11.90;99.90
7427;DHT22;3755;59.316;18.092;2022-10-31T11:46:48;12.10;99.90
7427;DHT22;3755;59.316;18.092;2022-10-31T12:25:53;12.70;99.90
7427;DHT22;3755;59.316;18.092;2022-10-31T12:32:21;12.80;99.90
7427;DHT22;3755;59.316;18.092;2022-10-31T12:35:30;12.80;99.90
7427;DHT22;3755;59.316;18.092;2022-10-31T12:41:19;12.80;99.90
7427;DHT22;3755;59.316;18.092;2022-10-31T12:44:02;12.80;99.90
7427;DHT22;3755;59.316;18.092;2022-10-31T12:50:39;12.90;99.90
7427;DHT22;3755;59.316;18.092;2022-10-31T12:54:05;12.80;99.90
7427;DHT22;3755;59.316;18.092;2022-10-31T13:03:32;13.10;99.90
7427;DHT22;3755;59.316;18.092;2022-10-31T13:06:19;12.90;99.90
7427;DHT22;3755;59.316;18.092;2022-10-31T13:09:09;12.80;99.90
7427;DHT22;3755;59.316;18.092;2022-10-31T13:11:48;12.80;99.90
7427;DHT22;3755;59.316;18.092;2022-10-31T13:14:24;12.80;99.90
7427;DHT22;3755;59.316;18.092;2022-10-31T13:16:55;12.80;99.90
7427;DHT22;3755;59.316;18.092;2022-10-31T13:52:40;12.80;99.90
7427;DHT22;3755;59.316;18.092;2022-10-31T13:55:40;12.70;99.90
7427;DHT22;3755;59.316;18.092;2022-10-31T13:58:26;12.80;99.90
7427;DHT22;3755;59.316;18.092;2022-10-31T14:01:18;12.80;99.90
7427;DHT22;3755;59.316;18.092;2022-10-31T14:07:30;12.80;99.90
7427;DHT22;3755;59.316;18.092;2022-10-31T14:33:29;12.70;99.90
7427;DHT22;3755;59.316;18.092;2022-10-31T14:36:39;12.80;99.90
7427;DHT22;3755;59.316;18.092;2022-10-31T14:43:31;12.70;99.90
7427;DHT22;3755;59.316;18.092;2022-10-31T15:34:19;12.10;99.90
7427;DHT22;3755;59.316;18.092;2022-10-31T15:37:16;12.00;99.90
7427;DHT22;3755;59.316;18.092;2022-10-31T15:40:20;12.00;99.90
7427;DHT22;3755;59.316;18.092;2022-10-31T15:43:06;12.00;99.90
7427;DHT22;3755;59.316;18.092;2022-10-31T15:45:48;11.90;99.90
7427;DHT22;3755;59.316;18.092;2022-10-31T15:48:41;11.80;99.90
7427;DHT22;3755;59.316;18.092;2022-10-31T16:04:54;11.70;99.90
7427;DHT22;3755;59.316;18.092;2022-10-31T16:07:50;11.70;99.90
7427;DHT22;3755;59.316;18.092;2022-10-31T16:10:50;11.70;99.90
7427;DHT22;3755;59.316;18.092;2022-10-31T16:13:38;11.70;99.90
7427;DHT22;3755;59.316;18.092;2022-10-31T16:16:23;11.60;99.90
7427;DHT22;3755;59.316;18.092;2022-10-31T16:19:26;11.50;99.90
7427;DHT22;3755;59.316;18.092;2022-10-31T16:22:34;11.50;99.90
7427;DHT22;3755;59.316;18.092;2022-10-31T16:25:40;11.50;99.90
7427;DHT22;3755;59.316;18.092;2022-10-31T16:28:26;11.70;99.90
7427;DHT22;3755;59.316;18.092;2022-10-31T16:34:52;11.80;99.90
7427;DHT22;3755;59.316;18.092;2022-10-31T16:37:57;11.80;99.90
7427;DHT22;3755;59.316;18.092;2022-10-31T16:40:41;11.80;99.90
7427;DHT22;3755;59.316;18.092;2022-10-31T16:49:16;11.60;99.90
7427;DHT22;3755;59.316;18.092;2022-10-31T16:54:40;11.50;99.90
7427;DHT22;3755;59.316;18.092;2022-10-31T16:57:13;11.50;99.90
7427;DHT22;3755;59.316;18.092;2022-10-31T16:59:47;11.50;99.90
7427;DHT22;3755;59.316;18.092;2022-10-31T17:02:25;11.40;99.90
7427;DHT22;3755;59.316;18.092;2022-10-31T17:05:21;11.30;99.90
7427;DHT22;3755;59.316;18.092;2022-10-31T17:08:04;11.30;99.90
7427;DHT22;3755;59.316;18.092;2022-10-31T17:10:33;11.30;99.90
7427;DHT22;3755;59.316;18.092;2022-10-31T17:13:02;11.30;99.90
7427;DHT22;3755;59.316;18.092;2022-10-31T17:15:37;11.30;99.90
7427;DHT22;3755;59.316;18.092;2022-10-31T17:18:12;11.30;99.90
7427;DHT22;3755;59.316;18.092;2022-10-31T17:20:44;11.30;99.90
7427;DHT22;3755;59.316;18.092;2022-10-31T17:23:15;11.30;99.90
7427;DHT22;3755;59.316;18.092;2022-10-31T17:25:52;11.20;99.90
7427;DHT22;3755;59.316;18.092;2022-10-31T17:28:37;11.20;99.90
7427;DHT22;3755;59.316;18.092;2022-10-31T17:31:20;11.20;99.90
7427;DHT22;3755;59.316;18.092;2022-10-31T17:34:01;11.10;99.90
7427;DHT22;3755;59.316;18.092;2022-10-31T17:36:33;11.10;99.90
7427;DHT22;3755;59.316;18.092;2022-10-31T17:39:02;11.10;99.90
7427;DHT22;3755;59.316;18.092;2022-10-31T17:41:33;11.00;99.90
7427;DHT22;3755;59.316;18.092;2022-10-31T17:44:02;11.00;99.90
7427;DHT22;3755;59.316;18.092;2022-10-31T17:46:30;11.20;99.90
7427;DHT22;3755;59.316;18.092;2022-10-31T17:49:00;11.20;99.90
7427;DHT22;3755;59.316;18.092;2022-10-31T17:51:30;11.20;99.90
7427;DHT22;3755;59.316;18.092;2022-10-31T17:53:58;11.20;99.90
7427;DHT22;3755;59.316;18.092;2022-10-31T17:56:27;11.30;99.90
7427;DHT22;3755;59.316;18.092;2022-10-31T17:58:59;11.20;99.90
7427;DHT22;3755;59.316;18.092;2022-10-31T18:01:30;11.30;99.90
7427;DHT22;3755;59.316;18.092;2022-10-31T18:03:58;11.20;99.90
7427;DHT22;3755;59.316;18.092;2022-10-31T18:06:27;11.20;99.90
7427;DHT22;3755;59.316;18.092;2022-10-31T18:08:55;11.20;99.90
7427;DHT22;3755;59.316;18.092;2022-10-31T18:11:23;11.20;99.90
7427;DHT22;3755;59.316;18.092;2022-10-31T18:13:54;11.30;99.90
7427;DHT22;3755;59.316;18.092;2022-10-31T18:16:26;11.40;99.90
7427;DHT22;3755;59.316;18.092;2022-10-31T18:18:57;11.40;99.90
7427;DHT22;3755;59.316;18.092;2022-10-31T18:21:26;11.40;99.90
7427;DHT22;3755;59.316;18.092;2022-10-31T18:23:54;11.40;99.90
7427;DHT22;3755;59.316;18.092;2022-10-31T18:26:22;11.40;99.90
7427;DHT22;3755;59.316;18.092;2022-10-31T18:28:50;11.40;99.90
7427;DHT22;3755;59.316;18.092;2022-10-31T18:31:18;11.40;99.90
7427;DHT22;3755;59.316;18.092;2022-10-31T18:33:46;11.40;99.90
7427;DHT22;3755;59.316;18.092;2022-10-31T18:36:14;11.40;99.90
7427;DHT22;3755;59.316;18.092;2022-10-31T18:38:43;11.30;99.90
7427;DHT22;3755;59.316;18.092;2022-10-31T18:41:11;11.40;99.90
7427;DHT22;3755;59.316;18.092;2022-10-31T18:43:39;11.40;99.90
7427;DHT22;3755;59.316;18.092;2022-10-31T18:46:08;11.40;99.90
7427;DHT22;3755;59.316;18.092;2022-10-31T18:48:36;11.40;99.90
7427;DHT22;3755;59.316;18.092;2022-10-31T18:51:08;11.40;99.90
7427;DHT22;3755;59.316;18.092;2022-10-31T18:53:36;11.40;99.90
7427;DHT22;3755;59.316;18.092;2022-10-31T18:56:06;11.40;99.90
7427;DHT22;3755;59.316;18.092;2022-10-31T18:58:34;11.40;99.90
7427;DHT22;3755;59.316;18.092;2022-10-31T19:01:06;11.40;99.90
7427;DHT22;3755;59.316;18.092;2022-10-31T19:03:35;11.30;99.90
7427;DHT22;3755;59.316;18.092;2022-10-31T19:06:10;11.30;99.90
7427;DHT22;3755;59.316;18.092;2022-10-31T19:08:56;11.30;99.90
7427;DHT22;3755;59.316;18.092;2022-10-31T19:11:38;11.20;99.90
7427;DHT22;3755;59.316;18.092;2022-10-31T19:14:09;11.20;99.90
7427;DHT22;3755;59.316;18.092;2022-10-31T19:16:52;11.20;99.90
7427;DHT22;3755;59.316;18.092;2022-10-31T19:19:20;11.10;99.90
7427;DHT22;3755;59.316;18.092;2022-10-31T19:22:07;11.10;99.90
7427;DHT22;3755;59.316;18.092;2022-10-31T19:24:48;11.10;99.90
7427;DHT22;3755;59.316;18.092;2022-10-31T19:27:15;11.00;99.90
7427;DHT22;3755;59.316;18.092;2022-10-31T19:29:43;11.00;99.90
7427;DHT22;3755;59.316;18.092;2022-10-31T19:32:12;11.10;99.90
7427;DHT22;3755;59.316;18.092;2022-10-31T19:34:44;11.00;99.90
7427;DHT22;3755;59.316;18.092;2022-10-31T19:37:13;11.00;99.90
7427;DHT22;3755;59.316;18.092;2022-10-31T19:39:55;11.00;99.90
7427;DHT22;3755;59.316;18.092;2022-10-31T19:42:23;10.90;99.90
7427;DHT22;3755;59.316;18.092;2022-10-31T19:44:52;11.00;99.90
7427;DHT22;3755;59.316;18.092;2022-10-31T19:47:22;10.90;99.90
7427;DHT22;3755;59.316;18.092;2022-10-31T19:49:50;11.00;99.90
7427;DHT22;3755;59.316;18.092;2022-10-31T19:52:37;10.80;99.90
7427;DHT22;3755;59.316;18.092;2022-10-31T19:55:05;10.70;99.90
7427;DHT22;3755;59.316;18.092;2022-10-31T19:57:33;10.70;99.90
7427;DHT22;3755;59.316;18.092;2022-10-31T20:00:05;10.60;99.90
7427;DHT22;3755;59.316;18.092;2022-10-31T20:02:34;10.60;99.90
7427;DHT22;3755;59.316;18.092;2022-10-31T20:05:04;10.60;99.90
7427;DHT22;3755;59.316;18.092;2022-10-31T20:07:33;10.60;99.90
7427;DHT22;3755;59.316;18.092;2022-10-31T20:10:02;10.50;99.90
7427;DHT22;3755;59.316;18.092;2022-10-31T20:12:34;10.50;99.90
7427;DHT22;3755;59.316;18.092;2022-10-31T20:15:02;10.50;99.90
7427;DHT22;3755;59.316;18.092;2022-10-31T20:17:43;10.50;99.90
7427;DHT22;3755;59.316;18.092;2022-10-31T20:20:12;10.50;99.90
7427;DHT22;3755;59.316;18.092;2022-10-31T20:22:44;10.50;99.90
7427;DHT22;3755;59.316;18.092;2022-10-31T20:25:20;10.40;99.90
7427;DHT22;3755;59.316;18.092;2022-10-31T20:27:59;10.40;99.90
7427;DHT22;3755;59.316;18.092;2022-10-31T20:30:28;10.30;99.90
7427;DHT22;3755;59.316;18.092;2022-10-31T20:33:02;10.20;99.90
7427;DHT22;3755;59.316;18.092;2022-10-31T20:35:29;10.20;99.90
7427;DHT22;3755;59.316;18.092;2022-10-31T20:37:58;10.10;99.90
7427;DHT22;3755;59.316;18.092;2022-10-31T20:41:04;10.10;99.90
7427;DHT22;3755;59.316;18.092;2022-10-31T20:43:46;10.20;99.90
7427;DHT22;3755;59.316;18.092;2022-10-31T20:46:19;10.10;99.90
7427;DHT22;3755;59.316;18.092;2022-10-31T20:49:00;10.10;99.90
7427;DHT22;3755;59.316;18.092;2022-10-31T20:51:28;10.10;99.90
7427;DHT22;3755;59.316;18.092;2022-10-31T20:53:57;10.10;99.90
7427;DHT22;3755;59.316;18.092;2022-10-31T20:56:27;10.10;99.90
7427;DHT22;3755;59.316;18.092;2022-10-31T20:58:55;10.00;99.90
7427;DHT22;3755;59.316;18.092;2022-10-31T21:01:25;10.00;99.90
7427;DHT22;3755;59.316;18.092;2022-10-31T21:03:55;9.90;99.90
7427;DHT22;3755;59.316;18.092;2022-10-31T21:06:37;9.90;99.90
7427;DHT22;3755;59.316;18.092;2022-10-31T21:09:11;9.90;99.90
7427;DHT22;3755;59.316;18.092;2022-10-31T21:11:57;9.80;99.90
7427;DHT22;3755;59.316;18.092;2022-10-31T21:14:28;9.80;99.90
7427;DHT22;3755;59.316;18.092;2022-10-31T21:16:56;9.80;99.90
7427;DHT22;3755;59.316;18.092;2022-10-31T21:19:25;9.80;99.90
7427;DHT22;3755;59.316;18.092;2022-10-31T21:21:56;9.70;99.90
7427;DHT22;3755;59.316;18.092;2022-10-31T21:24:24;9.60;99.90
7427;DHT22;3755;59.316;18.092;2022-10-31T21:26:55;9.60;99.90
7427;DHT22;3755;59.316;18.092;2022-10-31T21:29:27;9.60;99.90
7427;DHT22;3755;59.316;18.092;2022-10-31T21:31:55;9.60;99.90
7427;DHT22;3755;59.316;18.092;2022-10-31T21:34:22;9.60;99.90
7427;DHT22;3755;59.316;18.092;2022-10-31T21:36:49;9.60;99.90
7427;DHT22;3755;59.316;18.092;2022-10-31T21:39:17;9.50;99.90
7427;DHT22;3755;59.316;18.092;2022-10-31T21:41:45;9.50;99.90
7427;DHT22;3755;59.316;18.092;2022-10-31T21:44:18;9.40;99.90
7427;DHT22;3755;59.316;18.092;2022-10-31T21:46:45;9.40;99.90
7427;DHT22;3755;59.316;18.092;2022-10-31T21:49:13;9.50;99.90
7427;DHT22;3755;59.316;18.092;2022-10-31T21:51:42;9.60;99.90
7427;DHT22;3755;59.316;18.092;2022-10-31T21:54:11;9.50;99.90
7427;DHT22;3755;59.316;18.092;2022-10-31T21:56:53;9.50;99.90
7427;DHT22;3755;59.316;18.092;2022-10-31T21:59:25;9.50;99.90
7427;DHT22;3755;59.316;18.092;2022-10-31T22:01:53;9.40;99.90
7427;DHT22;3755;59.316;18.092;2022-10-31T22:04:25;9.40;99.90
7427;DHT22;3755;59.316;18.092;2022-10-31T22:06:53;9.30;99.90
7427;DHT22;3755;59.316;18.092;2022-10-31T22:09:23;9.20;99.90
7427;DHT22;3755;59.316;18.092;2022-10-31T22:11:50;9.30;99.90
7427;DHT22;3755;59.316;18.092;2022-10-31T22:14:23;9.30;99.90
7427;DHT22;3755;59.316;18.092;2022-10-31T22:16:50;9.50;99.90
7427;DHT22;3755;59.316;18.092;2022-10-31T22:19:20;9.50;99.90
7427;DHT22;3755;59.316;18.092;2022-10-31T22:21:48;9.40;99.90
7427;DHT22;3755;59.316;18.092;2022-10-31T22:24:17;9.40;99.90
7427;DHT22;3755;59.316;18.092;2022-10-31T22:26:46;9.50;99.90
7427;DHT22;3755;59.316;18.092;2022-10-31T22:32:30;9.50;99.90
7427;DHT22;3755;59.316;18.092;2022-10-31T22:34:58;9.50;99.90
7427;DHT22;3755;59.316;18.092;2022-10-31T22:37:28;9.50;99.90
7427;DHT22;3755;59.316;18.092;2022-10-31T22:39:57;9.40;99.90
7427;DHT22;3755;59.316;18.092;2022-10-31T22:42:26;9.40;99.90
7427;DHT22;3755;59.316;18.092;2022-10-31T22:44:59;9.40;99.90
7427;DHT22;3755;59.316;18.092;2022-10-31T22:47:44;9.40;99.90
7427;DHT22;3755;59.316;18.092;2022-10-31T22:50:12;9.40;99.90
7427;DHT22;3755;59.316;18.092;2022-10-31T22:52:39;9.30;99.90
7427;DHT22;3755;59.316;18.092;2022-10-31T22:55:09;9.30;99.90
7427;DHT22;3755;59.316;18.092;2022-10-31T22:57:40;9.40;99.90
7427;DHT22;3755;59.316;18.092;2022-10-31T23:00:08;9.30;99.90
7427;DHT22;3755;59.316;18.092;2022-10-31T23:02:35;9.30;99.90
7427;DHT22;3755;59.316;18.092;2022-10-31T23:05:05;9.30;99.90
7427;DHT22;3755;59.316;18.092;2022-10-31T23:07:34;9.30;99.90